createdAt,value
2019-02-06T00:01:40.328Z,54.57
2019-02-06T00:04:15.312Z,54.54
2019-02-06T00:06:45.639Z,54.50
2019-02-06T00:09:18.131Z,54.57
2019-02-06T00:11:49.755Z,54.60
2019-02-06T00:14:21.370Z,54.61
2019-02-06T00:16:53.005Z,54.61
2019-02-06T00:19:25.189Z,54.60
2019-02-06T00:21:56.889Z,54.56
2019-02-06T00:24:28.494Z,54.56
2019-02-06T00:27:00.738Z,54.59
2019-02-06T00:29:32.302Z,54.67
2019-02-06T00:32:05.439Z,54.72
2019-02-06T00:34:37.042Z,54.73
2019-02-06T00:37:08.721Z,54.69
2019-02-06T00:39:40.416Z,54.66
2019-02-06T00:42:12.726Z,54.67
2019-02-06T00:44:45.015Z,54.68
2019-02-06T00:47:16.612Z,54.74
2019-02-06T00:49:48.243Z,54.88
2019-02-06T00:52:19.872Z,54.98
2019-02-06T00:54:51.470Z,55.10
2019-02-06T00:57:23.758Z,55.18
2019-02-06T00:59:58.369Z,55.24
2019-02-06T01:02:29.169Z,55.27
2019-02-06T01:05:00.806Z,55.27
2019-02-06T01:07:32.513Z,55.33
2019-02-06T01:10:05.502Z,55.33
2019-02-06T01:12:37.806Z,55.26
2019-02-06T01:15:11.321Z,55.18
2019-02-06T01:17:42.945Z,55.12
2019-02-06T01:20:17.223Z,55.08
2019-02-06T01:22:48.840Z,55.09
2019-02-06T01:25:20.665Z,55.16
2019-02-06T01:27:52.323Z,55.21
2019-02-06T01:30:26.682Z,55.25
2019-02-06T01:32:58.574Z,55.25
2019-02-06T01:35:30.243Z,55.28
2019-02-06T01:38:01.930Z,55.29
2019-02-06T01:40:33.570Z,55.27
2019-02-06T01:43:06.821Z,55.28
2019-02-06T01:45:36.750Z,55.30
2019-02-06T01:48:08.568Z,55.32
2019-02-06T01:50:40.272Z,55.30
2019-02-06T01:53:11.925Z,55.23
2019-02-06T01:55:45.256Z,55.18
2019-02-06T01:58:16.900Z,55.16
2019-02-06T02:00:50.140Z,55.13
2019-02-06T02:03:21.767Z,55.17
2019-02-06T02:06:01.651Z,55.20
2019-02-06T02:08:27.721Z,55.25
2019-02-06T02:10:59.474Z,55.31
2019-02-06T02:13:31.110Z,55.41
2019-02-06T02:16:03.119Z,55.47
2019-02-06T02:18:34.712Z,55.53
2019-02-06T02:21:06.634Z,55.55
2019-02-06T02:23:38.601Z,55.56
2019-02-06T02:26:10.540Z,55.54
2019-02-06T02:28:42.627Z,55.56
2019-02-06T02:31:15.667Z,55.55
2019-02-06T02:33:47.870Z,55.56
2019-02-06T02:36:19.939Z,55.63
2019-02-06T02:38:51.590Z,55.67
2019-02-06T02:41:23.287Z,55.72
2019-02-06T02:43:55.540Z,55.79
2019-02-06T02:46:29.355Z,55.79
2019-02-06T02:49:03.239Z,55.80
2019-02-06T02:51:34.931Z,55.78
2019-02-06T02:54:07.138Z,55.80
2019-02-06T02:56:39.032Z,55.78
2019-02-06T02:59:10.701Z,55.82
2019-02-06T03:02:00.165Z,55.83
2019-02-06T03:04:45.114Z,55.80
2019-02-06T03:07:17.010Z,55.78
2019-02-06T03:09:48.611Z,55.75
2019-02-06T03:12:20.405Z,55.80
2019-02-06T03:14:52.086Z,55.87
2019-02-06T03:17:24.294Z,55.93
2019-02-06T03:19:55.914Z,55.92
2019-02-06T03:22:27.510Z,55.90
2019-02-06T03:24:59.372Z,55.97
2019-02-06T03:27:31.013Z,56.04
2019-02-06T03:30:02.698Z,56.10
2019-02-06T03:32:34.983Z,56.18
2019-02-06T03:35:07.895Z,56.23
2019-02-06T03:37:39.527Z,56.27
2019-02-06T03:40:12.414Z,56.23
2019-02-06T03:42:44.296Z,56.17
2019-02-06T03:45:18.242Z,56.16
2019-02-06T03:47:50.552Z,56.14
2019-02-06T03:50:22.532Z,56.12
2019-02-06T03:52:54.195Z,56.06
2019-02-06T03:55:26.236Z,56.05
2019-02-06T03:57:58.402Z,56.04
2019-02-06T04:00:30.105Z,56.06
2019-02-06T04:03:01.716Z,56.07
2019-02-06T04:05:34.284Z,56.04
2019-02-06T04:08:05.917Z,56.01
2019-02-06T04:10:37.837Z,55.97
2019-02-06T04:13:09.465Z,55.99
2019-02-06T04:15:41.100Z,55.99
2019-02-06T04:18:12.771Z,56.05
2019-02-06T04:20:44.891Z,56.12
2019-02-06T04:23:18.520Z,56.20
2019-02-06T04:25:50.214Z,56.22
2019-02-06T04:28:21.976Z,56.27
2019-02-06T04:30:53.596Z,56.27
2019-02-06T04:33:26.212Z,56.27
2019-02-06T04:36:00.115Z,56.30
2019-02-06T04:38:31.701Z,56.33
2019-02-06T04:41:03.312Z,56.33
2019-02-06T04:43:35.561Z,56.33
2019-02-06T04:46:07.221Z,56.32
2019-02-06T04:48:40.474Z,56.29
2019-02-06T04:51:12.485Z,56.24
2019-02-06T04:53:44.077Z,56.19
2019-02-06T04:56:15.741Z,56.16
2019-02-06T04:58:47.475Z,56.10
2019-02-06T05:01:19.368Z,56.04
2019-02-06T05:03:52.747Z,56.02
2019-02-06T05:06:28.717Z,56.01
2019-02-06T05:09:02.012Z,56.05
2019-02-06T05:11:33.651Z,56.09
2019-02-06T05:14:08.061Z,56.17
2019-02-06T05:16:39.798Z,56.23
2019-02-06T05:19:11.485Z,56.27
2019-02-06T05:21:49.604Z,56.29
2019-02-06T05:24:21.552Z,56.29
2019-02-06T05:26:53.271Z,56.22
2019-02-06T05:29:24.953Z,56.21
2019-02-06T05:31:56.590Z,56.24
2019-02-06T05:34:28.370Z,56.29
2019-02-06T05:37:00.209Z,56.37
2019-02-06T05:39:31.795Z,56.41
2019-02-06T05:42:03.852Z,56.46
2019-02-06T05:44:35.749Z,56.48
2019-02-06T05:47:07.405Z,56.48
2019-02-06T05:49:39.118Z,56.48
2019-02-06T05:52:10.726Z,56.47
2019-02-06T05:54:42.536Z,56.49
2019-02-06T05:57:14.791Z,56.53
2019-02-06T05:59:46.520Z,56.50
2019-02-06T06:02:18.173Z,56.48
2019-02-06T06:04:49.834Z,56.42
2019-02-06T06:07:21.546Z,56.35
2019-02-06T06:09:53.208Z,56.36
2019-02-06T06:12:25.485Z,56.35
2019-02-06T06:14:57.136Z,56.34
2019-02-06T06:17:29.334Z,56.40
2019-02-06T06:20:00.954Z,56.47
2019-02-06T06:22:32.563Z,56.55
2019-02-06T06:25:04.820Z,56.58
2019-02-06T06:27:37.353Z,56.49
2019-02-06T06:30:12.698Z,56.47
2019-02-06T06:32:44.372Z,56.47
2019-02-06T06:35:16.532Z,56.44
2019-02-06T06:37:57.668Z,56.40
2019-02-06T06:40:23.499Z,56.38
2019-02-06T06:42:55.777Z,56.40
2019-02-06T06:45:27.753Z,56.43
2019-02-06T06:47:59.405Z,56.43
2019-02-06T06:50:31.086Z,56.43
2019-02-06T06:53:02.840Z,56.46
2019-02-06T06:55:35.345Z,56.53
2019-02-06T06:58:07.241Z,56.62
2019-02-06T07:00:39.250Z,56.68
2019-02-06T07:03:10.920Z,56.68
2019-02-06T07:05:42.748Z,56.73
2019-02-06T07:08:15.574Z,56.81
2019-02-06T07:10:47.221Z,56.87
2019-02-06T07:13:18.876Z,56.92
2019-02-06T07:15:50.876Z,56.90
2019-02-06T07:18:22.551Z,56.85
2019-02-06T07:20:54.595Z,56.78
2019-02-06T07:23:26.247Z,56.79
2019-02-06T07:25:58.002Z,56.83
2019-02-06T07:28:29.693Z,56.84
2019-02-06T07:31:01.973Z,56.82
2019-02-06T07:33:33.663Z,56.81
2019-02-06T07:36:05.324Z,56.79
2019-02-06T07:38:37.068Z,56.78
2019-02-06T07:41:08.800Z,56.74
2019-02-06T07:43:40.883Z,56.72
2019-02-06T07:51:16.598Z,56.80
2019-02-06T07:53:48.396Z,56.82
2019-02-06T07:56:20.098Z,56.79
2019-02-06T07:58:51.778Z,56.78
2019-02-06T08:01:24.077Z,56.84
2019-02-06T08:03:55.760Z,56.98
2019-02-06T08:06:27.491Z,57.12
2019-02-06T08:08:59.216Z,57.18
2019-02-06T08:11:31.161Z,57.26
2019-02-06T08:14:02.935Z,57.27
2019-02-06T08:16:35.450Z,57.27
2019-02-06T08:19:07.129Z,57.24
2019-02-06T08:21:38.776Z,57.24
2019-02-06T08:24:10.428Z,57.29
2019-02-06T08:26:42.053Z,57.35
2019-02-06T08:29:13.898Z,57.39
2019-02-06T08:31:46.208Z,57.42
2019-02-06T08:34:18.179Z,57.45
2019-02-06T08:36:49.875Z,57.47
2019-02-06T08:39:21.678Z,57.47
2019-02-06T08:41:53.607Z,57.52
2019-02-06T08:44:27.883Z,57.53
2019-02-06T08:47:00.701Z,57.56
2019-02-06T08:49:32.488Z,57.57
2019-02-06T08:52:04.245Z,57.57
2019-02-06T08:54:35.912Z,57.59
2019-02-06T08:57:07.554Z,57.57
2019-02-06T08:59:39.282Z,57.59
2019-02-06T09:02:10.927Z,57.59
2019-02-06T09:04:43.046Z,57.58
2019-02-06T09:07:14.789Z,57.55
2019-02-06T09:09:46.465Z,57.51
2019-02-06T09:12:18.211Z,57.48
2019-02-06T09:14:49.843Z,57.42
2019-02-06T09:17:21.960Z,57.36
2019-02-06T09:19:54.018Z,57.36
2019-02-06T09:22:25.664Z,57.35
2019-02-06T09:24:57.355Z,57.34
2019-02-06T09:27:29.924Z,57.29
2019-02-06T09:30:01.579Z,57.27
2019-02-06T09:32:33.645Z,57.28
2019-02-06T09:35:06.314Z,57.29
2019-02-06T09:37:38.013Z,57.24
2019-02-06T09:40:11.343Z,57.24
2019-02-06T09:42:43.025Z,57.24
2019-02-06T09:45:16.385Z,57.18
2019-02-06T09:47:48.180Z,57.15
2019-02-06T09:50:26.637Z,57.11
2019-02-06T09:52:58.979Z,57.10
2019-02-06T09:55:30.970Z,57.05
2019-02-06T09:58:02.815Z,57.01
2019-02-06T10:00:37.115Z,56.96
2019-02-06T10:03:09.448Z,56.88
2019-02-06T10:05:41.249Z,56.82
2019-02-06T10:08:12.909Z,56.78
2019-02-06T10:10:45.038Z,56.73
2019-02-06T10:13:16.767Z,56.73
2019-02-06T10:15:48.864Z,56.67
2019-02-06T10:18:20.469Z,56.64
2019-02-06T10:20:53.523Z,56.57
2019-02-06T10:23:25.255Z,56.56
2019-02-06T10:25:57.120Z,56.58
2019-02-06T10:28:29.166Z,56.56
2019-02-06T10:31:00.813Z,56.55
2019-02-06T10:33:32.463Z,56.51
2019-02-06T10:36:04.282Z,56.47
2019-02-06T10:38:36.236Z,56.46
2019-02-06T10:41:08.025Z,56.46
2019-02-06T10:43:39.690Z,56.44
2019-02-06T10:46:12.155Z,56.44
2019-02-06T10:48:44.040Z,56.40
2019-02-06T10:51:16.234Z,56.39
2019-02-06T10:53:48.310Z,56.34
2019-02-06T10:56:20.333Z,56.30
2019-02-06T10:58:52.087Z,56.26
2019-02-06T11:01:23.732Z,56.20
2019-02-06T11:03:55.619Z,56.13
2019-02-06T11:06:27.446Z,56.08
2019-02-06T11:08:59.505Z,56.04
2019-02-06T11:11:31.189Z,55.99
2019-02-06T11:14:03.135Z,55.90
2019-02-06T11:16:34.818Z,55.87
2019-02-06T11:19:06.880Z,55.79
2019-02-06T11:21:38.647Z,55.72
2019-02-06T11:24:10.900Z,55.68
2019-02-06T11:26:42.647Z,55.45
2019-02-06T11:29:14.347Z,55.50
2019-02-06T11:31:46.574Z,55.47
2019-02-06T11:34:18.235Z,55.38
2019-02-06T11:36:49.998Z,55.31
2019-02-06T11:39:24.333Z,55.24
2019-02-06T11:41:56.108Z,55.14
2019-02-06T11:44:28.536Z,55.08
2019-02-06T11:47:00.416Z,55.15
2019-02-06T11:49:40.093Z,55.10
2019-02-06T11:52:11.747Z,55.04
2019-02-06T11:54:44.028Z,55.01
2019-02-06T11:57:15.680Z,54.94
2019-02-06T11:59:47.432Z,54.88
2019-02-06T12:02:20.946Z,54.86
2019-02-06T12:04:52.901Z,54.80
2019-02-06T12:07:25.093Z,54.69
2019-02-06T12:10:09.020Z,54.64
2019-02-06T12:12:30.866Z,54.60
2019-02-06T12:15:02.526Z,54.54
2019-02-06T12:17:34.250Z,54.53
2019-02-06T12:20:13.225Z,54.48
2019-02-06T12:22:44.921Z,54.43
2019-02-06T12:25:18.463Z,54.35
2019-02-06T12:27:50.324Z,54.25
2019-02-06T12:30:27.275Z,54.22
2019-02-06T12:32:59.222Z,54.16
2019-02-06T12:35:31.226Z,54.11
2019-02-06T12:38:03.381Z,54.06
2019-02-06T12:40:35.212Z,54.01
2019-02-06T12:43:10.556Z,53.97
2019-02-06T12:45:42.521Z,53.99
2019-02-06T12:48:14.261Z,53.94
2019-02-06T12:50:46.451Z,53.83
2019-02-06T12:53:18.339Z,53.85
2019-02-06T12:55:50.035Z,53.88
2019-02-06T12:58:22.678Z,53.84
2019-02-06T13:00:54.331Z,53.80
2019-02-06T13:03:26.088Z,53.85
2019-02-06T13:05:57.796Z,53.82
2019-02-06T13:08:29.465Z,53.75
2019-02-06T13:11:01.547Z,53.67
2019-02-06T13:13:34.144Z,53.67
2019-02-06T13:16:05.942Z,53.56
2019-02-06T13:18:38.942Z,53.50
2019-02-06T13:21:10.714Z,53.34
2019-02-06T13:23:42.490Z,53.34
2019-02-06T13:26:14.178Z,53.24
2019-02-06T13:28:46.322Z,53.25
2019-02-06T13:31:18.068Z,53.21
2019-02-06T13:33:49.850Z,53.06
2019-02-06T13:36:22.113Z,53.02
2019-02-06T13:38:53.893Z,52.95
2019-02-06T13:41:25.537Z,52.95
2019-02-06T13:43:57.959Z,52.84
2019-02-06T13:46:29.928Z,52.83
2019-02-06T13:49:01.681Z,52.78
2019-02-06T13:51:33.362Z,52.58
2019-02-06T13:54:05.234Z,52.65
2019-02-06T13:56:37.317Z,52.54
2019-02-06T13:59:09.066Z,52.43
2019-02-06T14:01:41.295Z,52.40
2019-02-06T14:04:12.973Z,52.45
2019-02-06T14:06:45.089Z,52.44
2019-02-06T14:09:22.644Z,52.41
2019-02-06T14:11:51.498Z,52.42
2019-02-06T14:14:23.337Z,52.37
2019-02-06T14:16:55.482Z,52.34
2019-02-06T14:19:27.172Z,52.28
2019-02-06T14:21:58.860Z,52.26
2019-02-06T14:25:06.125Z,52.19
2019-02-06T14:28:49.710Z,52.19
2019-02-06T14:32:12.030Z,52.24
2019-02-06T14:35:24.272Z,52.24
2019-02-06T14:38:37.202Z,52.16
2019-02-06T14:41:44.667Z,52.11
2019-02-06T14:45:30.324Z,52.08
2019-02-06T14:48:48.820Z,52.06
2019-02-06T14:51:48.274Z,52.04
2019-02-06T14:54:50.522Z,51.93
2019-02-06T14:58:24.930Z,51.93
2019-02-06T15:01:51.168Z,51.86
2019-02-06T15:05:19.108Z,51.82
2019-02-06T15:08:40.541Z,51.77
2019-02-06T15:11:34.637Z,51.76
2019-02-06T15:15:17.165Z,51.76
2019-02-06T15:18:34.893Z,51.66
2019-02-06T15:21:42.725Z,51.75
2019-02-06T15:25:13.980Z,51.76
2019-02-06T15:28:22.081Z,51.77
2019-02-06T15:31:38.730Z,51.70
2019-02-06T15:35:10.227Z,51.66
2019-02-06T15:38:41.638Z,51.62
2019-02-06T15:42:06.824Z,51.63
2019-02-06T15:45:35.800Z,51.60
2019-02-06T15:48:54.638Z,51.48
2019-02-06T15:52:21.171Z,51.48
2019-02-06T15:55:59.473Z,51.44
2019-02-06T15:59:41.561Z,51.45
2019-02-06T16:02:57.272Z,51.55
2019-02-06T16:06:23.455Z,51.67
2019-02-06T16:09:45.751Z,51.70
2019-02-06T16:12:32.216Z,51.75
2019-02-06T16:16:15.855Z,51.80
2019-02-06T16:19:43.250Z,51.81
2019-02-06T16:22:48.276Z,51.80
2019-02-06T16:25:49.612Z,51.81
2019-02-06T16:29:12.558Z,51.84
2019-02-06T16:32:17.416Z,51.80
2019-02-06T16:35:19.593Z,51.79
2019-02-06T16:38:37.102Z,51.79
2019-02-06T16:42:08.422Z,51.77
2019-02-06T16:45:27.149Z,51.67
2019-02-06T16:48:58.957Z,51.64
2019-02-06T16:51:44.809Z,51.63
2019-02-06T16:55:10.850Z,51.72
2019-02-06T16:58:47.490Z,51.94
2019-02-06T17:02:11.609Z,52.16
2019-02-06T17:05:46.785Z,52.28
2019-02-06T17:09:16.452Z,52.30
2019-02-06T17:12:39.591Z,52.30
2019-02-06T17:16:33.355Z,52.31
2019-02-06T17:20:03.823Z,52.44
2019-02-06T17:23:43.533Z,52.59
2019-02-06T17:27:20.921Z,52.75
2019-02-06T17:30:53.084Z,52.91
2019-02-06T17:34:24.037Z,53.06
2019-02-06T17:37:28.724Z,53.18
2019-02-06T17:41:23.628Z,53.19
2019-02-06T17:44:54.859Z,53.12
2019-02-06T17:48:12.821Z,52.99
2019-02-06T17:52:08.697Z,52.98
2019-02-06T17:55:25.615Z,53.05
2019-02-06T17:58:03.607Z,52.96
2019-02-06T18:01:15.310Z,52.99
2019-02-06T18:03:59.967Z,53.10
2019-02-06T18:06:31.777Z,53.19
2019-02-06T18:09:11.946Z,53.33
2019-02-06T18:11:43.620Z,53.48
2019-02-06T18:14:15.406Z,53.52
2019-02-06T18:16:47.150Z,53.48
2019-02-06T18:19:19.012Z,53.56
2019-02-06T18:21:50.921Z,53.69
2019-02-06T18:24:22.616Z,53.73
2019-02-06T18:26:56.131Z,53.68
2019-02-06T18:29:27.895Z,53.64
2019-02-06T18:31:59.799Z,53.70
2019-02-06T18:34:31.535Z,53.77
2019-02-06T18:37:03.525Z,53.81
2019-02-06T18:39:35.312Z,53.86
2019-02-06T18:42:07.132Z,53.91
2019-02-06T18:44:39.208Z,53.96
2019-02-06T18:47:11.907Z,53.92
2019-02-06T18:49:44.164Z,53.96
2019-02-06T18:52:20.304Z,54.04
2019-02-06T18:54:49.508Z,54.11
2019-02-06T18:57:21.262Z,54.13
2019-02-06T18:59:53.533Z,54.16
2019-02-06T19:02:25.656Z,54.13
2019-02-06T19:04:57.482Z,54.06
2019-02-06T19:07:29.272Z,53.97
2019-02-06T19:10:02.528Z,53.89
2019-02-06T19:12:34.345Z,53.85
2019-02-06T19:15:08.633Z,53.90
2019-02-06T19:17:40.346Z,54.00
2019-02-06T19:20:13.613Z,54.12
2019-02-06T19:22:45.457Z,54.15
2019-02-06T19:25:17.558Z,54.16
2019-02-06T19:27:49.693Z,54.13
2019-02-06T19:30:31.753Z,54.16
2019-02-06T19:33:03.555Z,54.17
2019-02-06T19:35:35.387Z,54.17
2019-02-06T19:38:08.501Z,54.26
2019-02-06T19:40:40.447Z,54.36
2019-02-06T19:43:23.876Z,54.46
2019-02-06T19:46:01.277Z,54.54
2019-02-06T19:48:33.104Z,54.59
2019-02-06T19:51:04.923Z,54.63
2019-02-06T19:53:36.601Z,54.57
2019-02-06T19:56:08.681Z,54.52
2019-02-06T19:58:41.121Z,54.46
2019-02-06T20:01:13.702Z,54.46
2019-02-06T20:03:45.381Z,54.50
2019-02-06T20:06:29.702Z,54.51
2019-02-06T20:09:07.924Z,54.53
2019-02-06T20:11:39.730Z,54.55
2019-02-06T20:14:11.705Z,54.62
2019-02-06T20:16:44.167Z,54.73
2019-02-06T20:19:15.882Z,54.79
2019-02-06T20:21:47.910Z,54.84
2019-02-06T20:24:19.694Z,54.84
2019-02-06T20:26:51.507Z,54.84
2019-02-06T20:29:23.299Z,54.93
2019-02-06T20:31:55.796Z,55.02
2019-02-06T20:34:28.011Z,55.08
2019-02-06T20:36:59.845Z,55.10
2019-02-06T20:39:31.583Z,55.13
2019-02-06T20:42:03.318Z,55.15
2019-02-06T20:44:35.185Z,55.15
2019-02-06T20:47:10.881Z,55.16
2019-02-06T20:49:42.572Z,55.15
2019-02-06T20:52:14.294Z,55.16
2019-02-06T20:54:46.058Z,55.19
2019-02-06T20:57:17.833Z,55.24
2019-02-06T20:59:53.464Z,55.28
2019-02-06T21:02:29.537Z,55.32
2019-02-06T21:05:02.368Z,55.36
2019-02-06T21:07:34.332Z,55.37
2019-02-06T21:10:09.261Z,55.35
2019-02-06T21:12:41.436Z,55.36
2019-02-06T21:15:13.604Z,55.44
2019-02-06T21:17:47.852Z,55.51
2019-02-06T21:20:21.860Z,55.57
2019-02-06T21:22:54.371Z,55.57
2019-02-06T21:25:26.353Z,55.59
2019-02-06T21:27:58.065Z,55.62
2019-02-06T21:30:33.227Z,55.66
2019-02-06T21:33:05.627Z,55.71
2019-02-06T21:35:37.674Z,55.60
2019-02-06T21:38:09.848Z,55.59
2019-02-06T21:40:42.214Z,55.56
2019-02-06T21:43:14.084Z,55.58
2019-02-06T21:45:46.536Z,55.67
2019-02-06T21:48:18.407Z,55.76
2019-02-06T21:50:50.227Z,55.83
2019-02-06T21:53:22.136Z,55.82
2019-02-06T21:55:54.181Z,55.84
2019-02-06T21:58:26.103Z,55.86
2019-02-06T22:00:58.182Z,55.86
2019-02-06T22:03:29.945Z,55.93
2019-02-06T22:06:01.956Z,56.01
2019-02-06T22:08:33.632Z,56.03
2019-02-06T22:11:06.292Z,56.00
2019-02-06T22:13:39.800Z,55.96
2019-02-06T22:16:11.509Z,55.94
2019-02-06T22:18:43.431Z,55.91
2019-02-06T22:21:15.537Z,55.96
2019-02-06T22:23:47.688Z,55.96
2019-02-06T22:26:20.529Z,55.96
2019-02-06T22:28:52.366Z,55.95
2019-02-06T22:31:24.049Z,55.87
2019-02-06T22:33:56.182Z,55.89
2019-02-06T22:36:27.844Z,55.90
2019-02-06T22:38:59.627Z,55.99
2019-02-06T22:41:31.517Z,56.05
2019-02-06T22:44:06.529Z,56.06
2019-02-06T22:46:37.857Z,56.10
2019-02-06T22:49:09.858Z,56.15
2019-02-06T22:51:41.515Z,56.21
2019-02-06T22:54:13.354Z,56.23
2019-02-06T22:56:45.306Z,56.25
2019-02-06T22:59:19.117Z,56.29
2019-02-06T23:01:57.703Z,56.35
2019-02-06T23:04:29.436Z,56.36
2019-02-06T23:07:01.319Z,56.36
2019-02-06T23:09:33.147Z,56.41
2019-02-06T23:12:04.818Z,56.52
2019-02-06T23:14:37.655Z,56.63
2019-02-06T23:17:09.374Z,56.68
2019-02-06T23:19:41.058Z,56.64
2019-02-06T23:22:12.767Z,56.59
2019-02-06T23:24:45.186Z,56.56
2019-02-06T23:27:18.269Z,56.54
2019-02-06T23:29:50.490Z,56.54
2019-02-06T23:32:22.264Z,56.49
2019-02-06T23:34:53.872Z,56.40
2019-02-06T23:37:26.375Z,56.36
2019-02-06T23:39:58.018Z,56.36
2019-02-06T23:42:29.775Z,56.31
2019-02-06T23:45:02.569Z,56.33
2019-02-06T23:47:34.193Z,56.39
2019-02-06T23:50:07.152Z,56.45
2019-02-06T23:52:39.224Z,56.53
2019-02-06T23:55:11.416Z,56.56
2019-02-06T23:57:43.087Z,56.61
